Time;durP1;ratioP1;P1;durP2;ratioP2;P2;SDS_P1;SDS_P2;PMS_P1;PMS_P2;Temp;Humidity;BMP_temperature;BMP_pressure;BME280_temperature;BME280_humidity;BME280_pressure;Samples;Min_cycle;Max_cycle;Signal;HPM_P1;HPM_P2
2023/12/31 00:01:22;;;;;;;5.82;2.30;;;8.70;99.90;;;;;;6272951;22;20070;-85
2023/12/31 00:03:48;;;;;;;4.70;2.17;;;8.70;99.90;;;;;;6272886;22;20055;-84
2023/12/31 00:06:14;;;;;;;3.95;2.00;;;8.60;99.90;;;;;;6248675;22;20023;-85
2023/12/31 00:08:39;;;;;;;4.60;2.50;;;8.70;99.90;;;;;;6275618;22;20444;-85
2023/12/31 00:11:05;;;;;;;4.93;2.35;;;8.70;99.90;;;;;;6274318;22;20022;-85
2023/12/31 00:13:30;;;;;;;6.32;2.47;;;8.60;99.90;;;;;;6273993;22;20061;-85
2023/12/31 00:15:56;;;;;;;4.57;2.38;;;8.60;99.90;;;;;;6273785;22;20119;-85
2023/12/31 00:18:21;;;;;;;4.05;2.00;;;8.60;99.90;;;;;;6275890;22;20020;-84
2023/12/31 00:20:47;;;;;;;3.13;2.05;;;8.70;99.90;;;;;;6272215;22;20024;-85
2023/12/31 00:23:13;;;;;;;3.95;2.38;;;8.80;99.90;;;;;;6272222;22;20019;-84
2023/12/31 00:25:40;;;;;;;3.15;2.00;;;8.70;99.90;;;;;;6272129;22;20083;-85
2023/12/31 00:28:06;;;;;;;3.45;2.10;;;8.70;99.90;;;;;;6274186;22;20015;-86
2023/12/31 00:30:31;;;;;;;3.97;1.90;;;8.80;99.90;;;;;;6274706;22;20014;-85
2023/12/31 00:32:57;;;;;;;3.80;2.10;;;8.80;99.90;;;;;;6246970;22;20019;-85
2023/12/31 00:35:23;;;;;;;4.80;2.10;;;8.70;99.90;;;;;;6276181;22;20008;-85
2023/12/31 00:37:48;;;;;;;4.00;2.25;;;8.80;99.90;;;;;;6277879;22;20039;-84
2023/12/31 00:40:14;;;;;;;4.28;2.00;;;8.80;99.90;;;;;;6275977;22;20463;-85
2023/12/31 00:42:40;;;;;;;3.67;2.10;;;8.80;99.90;;;;;;6275394;22;20023;-84
2023/12/31 00:45:06;;;;;;;3.95;1.88;;;8.90;99.90;;;;;;6275714;22;20015;-84
2023/12/31 00:47:33;;;;;;;3.67;2.00;;;8.90;99.90;;;;;;6250121;22;20038;-85
2023/12/31 00:49:59;;;;;;;3.05;1.88;;;8.90;99.90;;;;;;6278951;22;20368;-85
2023/12/31 00:52:24;;;;;;;3.90;1.75;;;8.80;99.90;;;;;;6251680;22;20019;-84
2023/12/31 00:54:52;;;;;;;4.10;2.13;;;8.90;99.90;;;;;;6272917;22;20109;-85
2023/12/31 00:57:18;;;;;;;3.80;2.00;;;8.80;99.90;;;;;;6275477;22;20010;-85
2023/12/31 00:59:43;;;;;;;3.17;1.80;;;8.90;99.90;;;;;;6274570;22;20035;-85
2023/12/31 01:02:09;;;;;;;3.55;1.80;;;8.90;99.90;;;;;;6247499;22;20016;-86
2023/12/31 01:04:36;;;;;;;4.95;2.20;;;8.80;99.90;;;;;;6272205;22;20019;-85
2023/12/31 01:07:02;;;;;;;3.20;1.70;;;8.70;99.90;;;;;;6271999;22;20436;-86
2023/12/31 01:09:28;;;;;;;;;;;8.80;99.90;;;;;;6273739;22;20011;-84
2023/12/31 01:11:54;;;;;;;3.97;1.70;;;8.80;99.90;;;;;;6273544;22;19919;-85
2023/12/31 01:14:19;;;;;;;2.78;1.80;;;8.80;99.90;;;;;;6273424;22;20008;-85
2023/12/31 01:16:45;;;;;;;3.13;1.70;;;8.70;99.90;;;;;;6271198;22;20008;-85
2023/12/31 01:19:10;;;;;;;3.10;1.90;;;8.80;99.90;;;;;;6245722;22;20332;-84
2023/12/31 01:21:36;;;;;;;4.78;1.90;;;8.80;99.90;;;;;;6272461;22;20023;-84
2023/12/31 01:24:03;;;;;;;3.15;2.15;;;8.80;99.90;;;;;;6271392;22;20031;-84
2023/12/31 01:26:28;;;;;;;2.45;1.60;;;8.80;99.90;;;;;;6270399;22;20024;-85
2023/12/31 01:28:54;;;;;;;2.65;1.60;;;8.80;99.90;;;;;;6271673;22;20023;-84
2023/12/31 01:31:20;;;;;;;3.15;1.67;;;8.70;99.90;;;;;;6246133;22;20125;-84
2023/12/31 01:33:46;;;;;;;2.60;1.70;;;8.70;99.90;;;;;;6245492;22;20459;-84
2023/12/31 01:36:16;;;;;;;2.65;1.65;;;8.70;99.90;;;;;;6270734;22;20046;-85
2023/12/31 01:38:42;;;;;;;3.90;1.90;;;8.70;99.90;;;;;;6245702;22;20398;-85
2023/12/31 01:41:09;;;;;;;;;;;8.70;99.90;;;;;;6270067;22;20016;-85
2023/12/31 01:43:35;;;;;;;3.47;1.83;;;8.60;99.90;;;;;;6270705;22;19926;-85
2023/12/31 01:46:03;;;;;;;3.95;2.00;;;8.60;99.90;;;;;;6270677;22;20087;-85
2023/12/31 01:48:28;;;;;;;3.20;1.85;;;8.50;99.90;;;;;;6270704;22;20427;-85
2023/12/31 01:50:54;;;;;;;3.05;1.80;;;8.50;99.90;;;;;;6270541;22;20020;-85
2023/12/31 01:53:20;;;;;;;2.80;1.80;;;8.50;99.90;;;;;;6269882;22;20014;-85
2023/12/31 01:55:47;;;;;;;2.72;1.65;;;8.40;99.90;;;;;;6268492;22;20355;-84
2023/12/31 01:58:15;;;;;;;2.75;1.52;;;8.40;99.90;;;;;;6272349;22;20019;-86
2023/12/31 02:00:41;;;;;;;2.95;1.65;;;8.50;99.90;;;;;;6272643;22;20020;-86
2023/12/31 02:03:07;;;;;;;2.85;1.50;;;8.40;99.90;;;;;;6270051;22;20008;-83
2023/12/31 02:05:33;;;;;;;2.67;1.40;;;8.40;99.90;;;;;;6270691;22;20019;-84
2023/12/31 02:07:59;;;;;;;2.00;1.50;;;8.40;99.90;;;;;;6243765;22;20448;-83
2023/12/31 02:10:25;;;;;;;2.08;1.40;;;8.30;99.90;;;;;;6271326;22;20070;-83
2023/12/31 02:12:51;;;;;;;3.08;1.52;;;8.30;99.90;;;;;;6272357;22;20051;-83
2023/12/31 02:15:31;;;;;;;2.55;1.63;;;8.40;99.90;;;;;;6270011;22;20018;-83
2023/12/31 02:17:57;;;;;;;1.70;1.30;;;8.40;99.90;;;;;;6244163;22;20460;-82
2023/12/31 02:20:23;;;;;;;2.10;1.27;;;8.50;99.90;;;;;;6269927;22;20077;-83
2023/12/31 02:22:48;;;;;;;1.95;1.33;;;8.50;99.90;;;;;;6244426;22;20011;-83
2023/12/31 02:25:18;;;;;;;2.85;1.38;;;8.50;99.90;;;;;;6269042;22;20087;-83
2023/12/31 02:27:44;;;;;;;2.65;1.30;;;8.40;99.90;;;;;;6270984;22;20082;-84
2023/12/31 02:30:10;;;;;;;2.75;1.45;;;8.50;99.90;;;;;;6269909;22;20104;-83
2023/12/31 02:32:36;;;;;;;1.55;1.10;;;8.50;99.90;;;;;;6270002;22;20011;-83
2023/12/31 02:35:03;;;;;;;2.88;1.40;;;8.40;99.90;;;;;;6269623;22;20562;-83
2023/12/31 02:37:30;;;;;;;2.75;1.13;;;8.40;99.90;;;;;;6269738;22;20016;-83
2023/12/31 02:39:55;;;;;;;2.70;1.50;;;8.40;99.90;;;;;;6268408;22;20011;-83
2023/12/31 02:42:21;;;;;;;2.22;1.50;;;8.40;99.90;;;;;;6272045;22;20604;-84
2023/12/31 02:44:47;;;;;;;2.63;1.40;;;8.50;99.90;;;;;;6269944;22;20015;-83
2023/12/31 02:47:13;;;;;;;3.90;1.55;;;8.50;99.90;;;;;;6270412;22;20347;-84
2023/12/31 02:49:39;;;;;;;2.00;1.40;;;8.50;99.90;;;;;;6269732;22;20043;-83
2023/12/31 02:52:05;;;;;;;2.22;1.38;;;8.60;99.90;;;;;;6270430;22;20391;-83
2023/12/31 02:54:31;;;;;;;1.58;1.10;;;8.60;99.90;;;;;;6269624;22;20091;-83
2023/12/31 02:56:56;;;;;;;2.50;1.38;;;8.50;99.90;;;;;;6271164;22;20016;-84
2023/12/31 02:59:22;;;;;;;3.03;1.17;;;8.60;99.90;;;;;;6270745;22;20012;-84
2023/12/31 03:01:48;;;;;;;2.40;1.30;;;8.60;99.90;;;;;;6268873;22;20057;-83
2023/12/31 03:04:14;;;;;;;1.83;1.25;;;8.50;99.90;;;;;;6269566;22;20023;-84
2023/12/31 03:06:40;;;;;;;2.20;1.30;;;8.60;99.90;;;;;;6269708;22;20015;-84
2023/12/31 03:09:06;;;;;;;2.10;1.20;;;8.50;99.90;;;;;;6269148;22;20413;-84
2023/12/31 03:11:32;;;;;;;2.53;1.20;;;8.50;99.90;;;;;;6272046;22;20022;-83
2023/12/31 03:13:58;;;;;;;2.90;1.23;;;8.50;99.90;;;;;;6272358;22;20019;-83
2023/12/31 03:16:27;;;;;;;2.95;1.23;;;8.50;99.90;;;;;;6270732;22;20020;-83
2023/12/31 03:18:56;;;;;;;3.28;1.35;;;8.50;99.90;;;;;;6269470;22;20024;-84
2023/12/31 03:21:21;;;;;;;2.08;1.48;;;8.50;99.90;;;;;;6271147;22;20035;-83
2023/12/31 03:23:47;;;;;;;1.60;1.02;;;8.50;99.90;;;;;;6269396;22;20466;-83
2023/12/31 03:26:13;;;;;;;3.28;1.52;;;8.50;99.90;;;;;;6269157;22;20024;-83
2023/12/31 03:28:38;;;;;;;2.50;1.10;;;8.50;99.90;;;;;;6270287;22;20012;-83
2023/12/31 03:31:04;;;;;;;2.60;1.10;;;8.50;99.90;;;;;;6269352;22;20023;-83
2023/12/31 03:33:30;;;;;;;2.00;1.10;;;8.50;99.90;;;;;;6269428;22;20012;-83
2023/12/31 03:35:56;;;;;;;2.40;1.20;;;8.40;99.90;;;;;;6269675;22;20089;-83
2023/12/31 03:38:21;;;;;;;2.33;1.45;;;8.50;99.90;;;;;;6270960;22;20015;-83
2023/12/31 03:40:47;;;;;;;3.22;1.23;;;8.40;99.90;;;;;;6268566;22;20122;-83
2023/12/31 03:43:13;;;;;;;2.40;1.20;;;8.40;99.90;;;;;;6270260;22;20360;-83
2023/12/31 03:45:38;;;;;;;2.53;1.23;;;8.30;99.90;;;;;;6269753;22;20401;-83
2023/12/31 03:48:05;;;;;;;2.55;1.40;;;8.30;99.90;;;;;;6244048;22;20030;-83
2023/12/31 03:50:30;;;;;;;2.22;1.35;;;8.30;99.90;;;;;;6271241;22;20020;-83
2023/12/31 03:52:56;;;;;;;2.15;1.65;;;8.30;99.90;;;;;;6269134;22;20032;-83
2023/12/31 03:55:23;;;;;;;3.75;1.40;;;8.30;99.90;;;;;;6268960;22;20020;-83
2023/12/31 03:57:49;;;;;;;1.95;1.20;;;8.30;99.90;;;;;;6270115;22;20016;-84
2023/12/31 04:00:16;;;;;;;2.42;1.20;;;8.40;99.90;;;;;;6269575;22;20026;-83
2023/12/31 04:02:42;;;;;;;3.13;1.35;;;8.40;99.90;;;;;;6269558;22;20098;-83
2023/12/31 04:05:08;;;;;;;2.05;1.33;;;8.50;99.90;;;;;;6243686;22;20373;-83
2023/12/31 04:07:33;;;;;;;1.50;1.10;;;8.40;99.90;;;;;;6269346;22;20050;-83
2023/12/31 04:10:00;;;;;;;2.42;1.30;;;8.40;99.90;;;;;;6269301;22;20011;-83
2023/12/31 04:12:26;;;;;;;2.45;1.20;;;8.50;99.90;;;;;;6270210;22;20062;-83
2023/12/31 04:14:52;;;;;;;3.35;1.30;;;8.40;99.90;;;;;;6243977;22;20448;-83
2023/12/31 04:17:18;;;;;;;2.47;1.10;;;8.50;99.90;;;;;;6269528;22;20329;-84
2023/12/31 04:19:44;;;;;;;3.58;1.40;;;8.40;99.90;;;;;;6269007;22;20050;-83
2023/12/31 04:22:10;;;;;;;2.17;1.27;;;8.40;99.90;;;;;;6269059;22;20015;-84
2023/12/31 04:24:35;;;;;;;2.13;1.27;;;8.50;99.90;;;;;;6243861;22;20018;-84
2023/12/31 04:27:01;;;;;;;2.20;1.10;;;8.40;99.90;;;;;;6270013;22;20391;-84
2023/12/31 04:29:27;;;;;;;2.75;1.48;;;8.50;99.90;;;;;;6245212;22;20015;-84
2023/12/31 04:31:52;;;;;;;3.13;1.38;;;8.40;99.90;;;;;;6273104;22;20453;-83
2023/12/31 04:34:18;;;;;;;2.08;1.20;;;8.30;99.90;;;;;;6271819;22;20026;-84
2023/12/31 04:36:45;;;;;;;3.53;1.25;;;8.30;99.90;;;;;;6271417;22;20015;-84
2023/12/31 04:39:13;;;;;;;;;;;8.30;99.90;;;;;;6272183;22;20049;-84
2023/12/31 04:41:39;;;;;;;2.65;1.40;;;8.30;99.90;;;;;;6271112;22;19989;-84
2023/12/31 04:44:04;;;;;;;2.28;1.23;;;8.20;99.90;;;;;;6271636;22;20051;-84
2023/12/31 04:46:30;;;;;;;1.73;1.20;;;8.30;99.90;;;;;;6246770;22;20026;-84
2023/12/31 04:48:56;;;;;;;1.83;1.30;;;8.20;99.90;;;;;;6271553;22;20015;-83
2023/12/31 04:51:31;;;;;;;2.00;1.33;;;8.20;99.90;;;;;;6272166;22;20090;-84
2023/12/31 04:53:57;;;;;;;2.90;1.10;;;8.20;99.90;;;;;;6272606;22;20081;-84
2023/12/31 04:56:25;;;;;;;2.83;1.27;;;8.30;99.90;;;;;;6270895;22;20020;-84
2023/12/31 04:58:53;;;;;;;2.28;1.35;;;8.30;99.90;;;;;;6271341;22;20011;-83
2023/12/31 05:01:19;;;;;;;2.83;1.50;;;8.30;99.90;;;;;;6270148;22;20022;-84
2023/12/31 05:03:46;;;;;;;2.22;1.10;;;8.30;99.90;;;;;;6268859;22;20016;-84
2023/12/31 05:06:13;;;;;;;2.58;1.30;;;8.30;99.90;;;;;;6244144;22;20098;-84
2023/12/31 05:08:43;;;;;;;2.17;1.30;;;8.20;99.90;;;;;;6271276;22;20339;-84
2023/12/31 05:11:10;;;;;;;3.05;1.75;;;8.20;99.90;;;;;;6272965;22;20027;-83
2023/12/31 05:13:36;;;;;;;2.83;1.40;;;8.30;99.90;;;;;;6270022;22;20007;-84
2023/12/31 05:16:02;;;;;;;3.10;1.40;;;8.30;99.90;;;;;;6270846;22;20050;-85
2023/12/31 05:18:28;;;;;;;2.40;1.23;;;8.30;99.90;;;;;;6269968;22;20012;-84
2023/12/31 05:20:54;;;;;;;2.65;1.30;;;8.30;99.90;;;;;;6270543;22;20019;-84
2023/12/31 05:23:20;;;;;;;2.85;1.23;;;8.40;99.90;;;;;;6271074;22;20522;-84
2023/12/31 05:25:45;;;;;;;3.67;1.40;;;8.30;99.90;;;;;;6270927;22;20092;-84
2023/12/31 05:28:11;;;;;;;2.75;1.30;;;8.30;99.90;;;;;;6271621;22;20011;-85
2023/12/31 05:30:41;;;;;;;2.83;1.65;;;8.30;99.90;;;;;;6272613;22;20348;-84
2023/12/31 05:33:07;;;;;;;2.10;1.30;;;8.40;99.90;;;;;;6245645;22;20012;-84
2023/12/31 05:35:33;;;;;;;2.38;1.27;;;8.30;99.90;;;;;;6270956;22;20018;-84
2023/12/31 05:37:59;;;;;;;3.55;1.38;;;8.30;99.90;;;;;;6270713;22;20011;-84
2023/12/31 05:40:24;;;;;;;3.08;1.20;;;8.30;99.90;;;;;;6270008;22;20020;-84
2023/12/31 05:42:50;;;;;;;2.20;1.35;;;8.30;99.90;;;;;;6269973;22;20130;-84
2023/12/31 05:45:18;;;;;;;3.25;1.50;;;8.40;99.90;;;;;;6244622;22;20379;-83
2023/12/31 05:47:44;;;;;;;2.58;1.38;;;8.40;99.90;;;;;;6270607;22;20051;-82
2023/12/31 05:50:09;;;;;;;3.28;1.40;;;8.40;99.90;;;;;;6245589;22;20083;-83
2023/12/31 05:52:35;;;;;;;2.22;1.20;;;8.40;99.90;;;;;;6270667;22;20096;-84
2023/12/31 05:55:00;;;;;;;2.15;1.30;;;8.40;99.90;;;;;;6268777;22;20027;-86
2023/12/31 05:57:26;;;;;;;2.45;1.30;;;8.40;99.90;;;;;;6269840;22;20015;-86
2023/12/31 05:59:52;;;;;;;3.33;1.30;;;8.40;99.90;;;;;;6269773;22;20440;-86
2023/12/31 06:02:17;;;;;;;3.10;1.65;;;8.40;99.90;;;;;;6270566;22;20021;-86
2023/12/31 06:04:43;;;;;;;1.77;1.20;;;8.40;99.90;;;;;;6270431;22;20012;-86
2023/12/31 06:07:08;;;;;;;2.78;1.50;;;8.30;99.90;;;;;;6270809;22;20016;-86
2023/12/31 06:09:34;;;;;;;3.70;1.60;;;8.40;99.90;;;;;;6272218;22;20384;-86
2023/12/31 06:12:00;;;;;;;3.83;1.70;;;8.40;99.90;;;;;;6270240;22;20019;-86
2023/12/31 06:14:25;;;;;;;2.55;1.40;;;8.40;99.90;;;;;;6270148;22;20012;-86
2023/12/31 06:16:51;;;;;;;2.40;1.60;;;8.40;99.90;;;;;;6244329;22;20019;-86
2023/12/31 06:19:17;;;;;;;2.53;1.67;;;8.40;99.90;;;;;;6270165;22;20360;-86
2023/12/31 06:21:42;;;;;;;3.40;1.45;;;8.40;99.90;;;;;;6270679;22;20016;-86
2023/12/31 06:24:08;;;;;;;2.33;1.52;;;8.40;99.90;;;;;;6268649;22;20012;-84
2023/12/31 06:26:33;;;;;;;2.72;1.60;;;8.50;99.90;;;;;;6271571;22;20019;-84
2023/12/31 06:28:59;;;;;;;3.85;1.50;;;8.50;99.90;;;;;;6270158;22;20015;-85
2023/12/31 06:31:25;;;;;;;2.05;1.50;;;8.50;99.90;;;;;;6269214;22;20020;-84
2023/12/31 06:33:51;;;;;;;2.33;1.50;;;8.60;99.90;;;;;;6270085;22;20058;-84
2023/12/31 06:36:17;;;;;;;1.70;1.30;;;8.60;99.90;;;;;;6269795;22;20020;-84
2023/12/31 06:38:43;;;;;;;1.65;1.25;;;8.50;99.90;;;;;;6271895;22;20312;-84
2023/12/31 06:41:09;;;;;;;2.08;1.70;;;8.50;99.90;;;;;;6271621;22;20038;-84
2023/12/31 06:43:35;;;;;;;2.75;1.70;;;8.50;99.90;;;;;;6269966;22;20028;-84
2023/12/31 06:46:02;;;;;;;3.03;1.90;;;8.40;99.90;;;;;;6269267;22;20008;-85
2023/12/31 06:48:27;;;;;;;3.25;1.77;;;8.50;99.90;;;;;;6270137;22;20099;-83
2023/12/31 06:50:53;;;;;;;2.38;1.83;;;8.60;99.90;;;;;;6270322;22;20403;-85
2023/12/31 06:53:19;;;;;;;2.45;1.73;;;8.60;99.90;;;;;;6270083;22;20023;-85
2023/12/31 06:55:45;;;;;;;3.28;1.70;;;8.60;99.90;;;;;;6268602;22;20026;-85
2023/12/31 06:58:12;;;;;;;3.33;1.90;;;8.60;99.90;;;;;;6270033;22;20012;-85
2023/12/31 07:00:37;;;;;;;2.88;1.60;;;8.60;99.90;;;;;;6269846;22;20046;-85
2023/12/31 07:03:03;;;;;;;2.67;1.70;;;8.70;99.90;;;;;;6269948;22;20444;-84
2023/12/31 07:05:29;;;;;;;3.58;1.60;;;8.60;99.90;;;;;;6270330;22;20007;-85
2023/12/31 07:07:54;;;;;;;4.90;1.42;;;8.60;99.90;;;;;;6270228;22;20023;-85
2023/12/31 07:10:21;;;;;;;2.10;1.65;;;8.60;99.90;;;;;;6272100;22;20061;-86
2023/12/31 07:12:47;;;;;;;3.33;1.60;;;8.70;99.90;;;;;;6268891;22;20078;-84
2023/12/31 07:15:13;;;;;;;3.47;2.00;;;8.70;99.90;;;;;;6269246;22;20624;-85
2023/12/31 07:17:38;;;;;;;2.88;1.70;;;8.70;99.90;;;;;;6272358;22;20026;-85
2023/12/31 07:20:05;;;;;;;3.53;1.83;;;8.70;99.90;;;;;;6271282;22;20016;-85
2023/12/31 07:22:31;;;;;;;2.92;1.80;;;8.80;99.90;;;;;;6246172;22;20029;-85
2023/12/31 07:25:00;;;;;;;2.88;1.83;;;8.80;99.90;;;;;;6271372;22;20497;-85
2023/12/31 07:27:26;;;;;;;3.40;1.73;;;8.70;99.90;;;;;;6248681;22;20051;-84
2023/12/31 07:29:52;;;;;;;;;;;8.80;99.90;;;;;;6273324;22;20484;-85
2023/12/31 07:32:18;;;;;;;2.58;1.60;;;8.70;99.90;;;;;;6271876;22;19919;-84
2023/12/31 07:34:44;;;;;;;5.22;2.20;;;8.70;99.90;;;;;;6270694;22;20117;-85
2023/12/31 07:37:09;;;;;;;2.97;1.80;;;8.70;99.90;;;;;;6272702;22;20019;-84
2023/12/31 07:39:35;;;;;;;3.30;2.15;;;8.80;99.90;;;;;;6273930;22;20094;-85
2023/12/31 07:42:03;;;;;;;3.65;2.05;;;8.80;99.90;;;;;;6272927;22;20050;-84
2023/12/31 07:44:29;;;;;;;2.95;1.80;;;8.80;99.90;;;;;;6274062;22;20019;-85
2023/12/31 07:46:55;;;;;;;2.53;1.80;;;8.90;99.90;;;;;;6273260;22;20525;-84
2023/12/31 07:49:21;;;;;;;3.70;1.88;;;8.90;99.90;;;;;;6273089;22;20393;-85
2023/12/31 07:51:47;;;;;;;3.17;2.08;;;8.90;99.90;;;;;;6273562;22;20073;-85
2023/12/31 07:54:12;;;;;;;2.35;1.83;;;8.90;99.90;;;;;;6276393;22;20061;-85
2023/12/31 07:56:41;;;;;;;2.42;1.60;;;8.90;99.90;;;;;;6272613;22;20035;-82
2023/12/31 07:59:06;;;;;;;2.70;1.95;;;8.90;99.90;;;;;;6269535;22;20023;-82
2023/12/31 08:01:32;;;;;;;2.63;1.80;;;8.90;99.90;;;;;;6272539;22;20423;-85
2023/12/31 08:03:58;;;;;;;4.43;2.10;;;8.90;99.90;;;;;;6271650;22;20019;-83
2023/12/31 08:06:23;;;;;;;2.88;1.90;;;8.90;99.90;;;;;;6272862;22;20015;-83
2023/12/31 08:08:49;;;;;;;4.50;2.00;;;8.90;99.90;;;;;;6269280;22;20016;-82
2023/12/31 08:11:15;;;;;;;2.90;1.80;;;8.90;99.90;;;;;;6271021;22;20035;-82
2023/12/31 08:13:41;;;;;;;3.20;1.90;;;8.90;99.90;;;;;;6270605;22;20392;-82
2023/12/31 08:16:09;;;;;;;3.75;2.20;;;9.00;99.90;;;;;;6270067;22;20077;-83
2023/12/31 08:18:35;;;;;;;2.17;1.83;;;9.00;99.90;;;;;;6271476;22;20500;-84
2023/12/31 08:21:00;;;;;;;4.00;1.80;;;9.00;99.90;;;;;;6271571;22;20072;-83
2023/12/31 08:23:26;;;;;;;3.03;1.98;;;9.00;99.90;;;;;;6272141;22;20004;-83
2023/12/31 08:25:52;;;;;;;3.33;1.90;;;9.00;99.90;;;;;;6272967;22;20020;-83
2023/12/31 08:28:17;;;;;;;2.88;2.15;;;9.00;99.90;;;;;;6271493;22;20011;-83
2023/12/31 08:30:43;;;;;;;4.30;2.10;;;9.00;99.90;;;;;;6271260;22;20115;-83
2023/12/31 08:33:08;;;;;;;2.67;2.00;;;9.00;99.90;;;;;;6245685;22;20020;-84
2023/12/31 08:35:34;;;;;;;2.58;1.60;;;9.10;99.90;;;;;;6269686;22;20011;-83
2023/12/31 08:38:00;;;;;;;3.45;1.70;;;9.10;99.90;;;;;;6263667;22;20016;-84
2023/12/31 08:40:25;;;;;;;2.85;1.73;;;9.10;99.90;;;;;;6269815;22;20181;-84
2023/12/31 08:42:51;;;;;;;2.75;1.98;;;9.10;99.90;;;;;;6271960;22;20364;-84
2023/12/31 08:45:17;;;;;;;6.05;1.90;;;9.10;99.90;;;;;;6270662;22;20008;-84
2023/12/31 08:47:43;;;;;;;2.65;1.63;;;9.10;99.90;;;;;;6270239;22;20026;-84
2023/12/31 08:50:09;;;;;;;3.80;2.20;;;9.00;99.90;;;;;;6270773;22;20020;-83
2023/12/31 08:52:38;;;;;;;5.25;2.20;;;9.10;99.90;;;;;;6270898;22;20043;-84
2023/12/31 08:55:06;;;;;;;2.95;1.80;;;9.10;99.90;;;;;;6269670;22;20011;-84
2023/12/31 08:57:32;;;;;;;3.03;1.70;;;9.20;99.90;;;;;;6270070;22;20110;-84
2023/12/31 08:59:57;;;;;;;3.13;1.60;;;9.20;99.90;;;;;;6272869;22;20049;-85
2023/12/31 09:02:23;;;;;;;2.22;1.65;;;9.20;99.90;;;;;;6270751;22;20432;-84
2023/12/31 09:04:49;;;;;;;2.92;2.00;;;9.10;99.90;;;;;;6270675;22;20023;-84
2023/12/31 09:07:14;;;;;;;4.22;1.70;;;9.10;99.90;;;;;;6271127;22;20030;-84
2023/12/31 09:09:40;;;;;;;2.33;1.70;;;9.10;99.90;;;;;;6270796;22;20461;-84
2023/12/31 09:12:06;;;;;;;3.92;1.85;;;9.10;99.90;;;;;;6270684;22;20089;-84
2023/12/31 09:14:32;;;;;;;2.13;1.52;;;9.20;99.90;;;;;;6270400;22;20031;-85
2023/12/31 09:16:57;;;;;;;3.70;1.88;;;9.20;99.90;;;;;;6269331;22;20020;-85
2023/12/31 09:19:23;;;;;;;4.22;1.90;;;9.20;99.90;;;;;;6245299;22;20047;-85
2023/12/31 09:21:48;;;;;;;3.35;1.58;;;9.30;99.90;;;;;;6269372;22;20424;-85
2023/12/31 09:24:14;;;;;;;3.00;1.90;;;9.30;99.90;;;;;;6269358;22;20014;-85
2023/12/31 09:26:40;;;;;;;4.15;1.70;;;9.30;99.90;;;;;;6242645;22;20092;-85
2023/12/31 09:29:06;;;;;;;2.67;1.50;;;9.30;99.90;;;;;;6246115;22;20015;-88
2023/12/31 09:31:31;;;;;;;2.90;1.90;;;9.30;99.90;;;;;;6269705;22;20114;-85
2023/12/31 09:33:57;;;;;;;3.90;1.83;;;9.40;99.90;;;;;;6269891;22;20472;-85
2023/12/31 09:36:23;;;;;;;2.95;1.60;;;9.30;99.90;;;;;;6269303;22;20316;-83
2023/12/31 09:38:48;;;;;;;2.35;1.65;;;9.40;99.90;;;;;;6270172;22;20189;-83
2023/12/31 09:41:25;;;;;;;3.75;1.90;;;9.30;99.90;;;;;;6268608;22;20019;-83
2023/12/31 09:43:54;;;;;;;3.85;1.83;;;9.30;99.90;;;;;;6270399;22;20022;-84
2023/12/31 09:46:24;;;;;;;2.03;1.58;;;9.40;99.90;;;;;;6269126;22;20016;-85
2023/12/31 09:48:51;;;;;;;4.57;1.90;;;9.40;99.90;;;;;;6272483;22;20022;-84
2023/12/31 09:51:18;;;;;;;2.63;1.88;;;9.30;99.90;;;;;;6270082;22;20085;-83
2023/12/31 09:53:46;;;;;;;3.78;1.77;;;9.40;99.90;;;;;;6270331;22;20275;-83
2023/12/31 09:56:17;;;;;;;4.05;1.90;;;9.40;99.90;;;;;;6270471;22;20015;-83
2023/12/31 09:58:43;;;;;;;2.95;1.80;;;9.50;99.90;;;;;;6270848;22;20100;-83
2023/12/31 10:01:09;;;;;;;3.95;2.20;;;9.50;99.90;;;;;;6269218;22;20153;-83
2023/12/31 10:03:37;;;;;;;5.72;1.92;;;9.50;99.90;;;;;;6270577;22;20144;-83
2023/12/31 10:06:05;;;;;;;3.65;2.13;;;9.50;99.90;;;;;;6269491;22;20024;-83
2023/12/31 10:08:32;;;;;;;2.30;1.92;;;9.60;99.90;;;;;;6270161;22;20069;-83
2023/12/31 10:10:59;;;;;;;3.40;1.95;;;9.50;99.90;;;;;;6269839;22;20020;-83
2023/12/31 10:13:26;;;;;;;2.80;1.90;;;9.50;99.90;;;;;;6272097;22;20036;-83
2023/12/31 10:15:51;;;;;;;2.08;1.70;;;9.60;99.90;;;;;;6269858;22;20055;-84
2023/12/31 10:18:18;;;;;;;3.55;2.00;;;9.60;99.90;;;;;;6269229;22;20020;-85
2023/12/31 10:20:44;;;;;;;3.50;2.10;;;9.60;99.90;;;;;;6245443;22;20022;-84
2023/12/31 10:23:09;;;;;;;2.72;1.90;;;9.60;99.90;;;;;;6269687;22;20019;-84
2023/12/31 10:25:35;;;;;;;3.00;2.17;;;9.60;99.90;;;;;;6270711;22;20030;-84
2023/12/31 10:28:03;;;;;;;3.50;2.60;;;9.70;99.90;;;;;;6273732;22;20015;-84
2023/12/31 10:30:29;;;;;;;3.60;2.40;;;9.70;99.90;;;;;;6272195;22;20065;-84
2023/12/31 10:33:09;;;;;;;3.30;2.20;;;9.80;99.90;;;;;;6271243;22;20027;-84
2023/12/31 10:35:35;;;;;;;3.50;2.20;;;9.80;99.90;;;;;;6271133;22;20023;-84
2023/12/31 10:38:05;;;;;;;4.22;2.55;;;9.90;99.90;;;;;;6270721;22;20007;-84
2023/12/31 10:40:33;;;;;;;4.35;2.25;;;9.80;99.90;;;;;;6269967;22;20016;-85
2023/12/31 10:42:59;;;;;;;3.90;2.15;;;9.90;99.90;;;;;;6243866;22;20052;-84
2023/12/31 10:45:29;;;;;;;4.13;2.28;;;9.90;99.90;;;;;;6269475;22;20030;-83
2023/12/31 10:48:01;;;;;;;3.38;2.70;;;9.90;99.90;;;;;;6269863;22;20015;-83
2023/12/31 10:50:28;;;;;;;3.10;2.20;;;10.00;99.90;;;;;;6243894;22;20016;-81
2023/12/31 10:52:57;;;;;;;3.15;2.15;;;10.00;99.90;;;;;;6268766;22;20056;-82
2023/12/31 10:55:23;;;;;;;4.10;2.30;;;10.00;99.90;;;;;;6243188;22;20061;-82
2023/12/31 10:57:51;;;;;;;3.55;2.30;;;10.00;99.90;;;;;;6266420;22;20016;-83
2023/12/31 11:00:19;;;;;;;5.32;2.25;;;10.10;99.90;;;;;;6268969;22;20327;-82
2023/12/31 11:02:45;;;;;;;3.60;2.30;;;10.10;99.90;;;;;;6269547;22;20451;-81
2023/12/31 11:05:12;;;;;;;;;;;10.10;99.90;;;;;;6269450;22;20094;-81
2023/12/31 11:07:40;;;;;;;3.55;2.45;;;10.10;99.90;;;;;;6267405;22;19914;-80
2023/12/31 11:10:08;;;;;;;3.53;2.35;;;10.10;99.90;;;;;;6241599;22;20020;-81
2023/12/31 11:12:34;;;;;;;4.22;2.40;;;10.10;99.90;;;;;;6268447;22;20027;-81
2023/12/31 11:15:22;;;;;;;4.13;2.70;;;10.00;99.90;;;;;;6271049;22;20012;-81
2023/12/31 11:18:12;;;;;;;3.40;2.42;;;10.00;99.90;;;;;;6269859;22;20016;-80
2023/12/31 11:20:57;;;;;;;4.95;2.78;;;9.90;99.90;;;;;;6270210;22;20016;-82
2023/12/31 11:23:56;;;;;;;4.13;2.70;;;9.80;99.90;;;;;;6271170;22;20376;-81
2023/12/31 11:26:23;;;;;;;3.80;2.63;;;9.70;99.90;;;;;;6269445;22;20189;-82
2023/12/31 11:28:50;;;;;;;3.13;2.40;;;9.70;99.90;;;;;;6269556;22;20011;-81
2023/12/31 11:31:15;;;;;;;;;;;9.70;99.90;;;;;;6269843;22;20095;-81
2023/12/31 11:33:41;;;;;;;3.58;2.40;;;9.60;99.90;;;;;;6270476;22;19938;-82
2023/12/31 11:36:15;;;;;;;3.67;2.53;;;9.50;99.90;;;;;;6268739;22;20390;-82
2023/12/31 11:38:59;;;;;;;5.10;3.97;;;9.50;99.90;;;;;;6268469;22;20011;-81
2023/12/31 11:41:26;;;;;;;6.70;3.35;;;9.40;99.90;;;;;;6268989;22;20023;-81
2023/12/31 11:43:52;;;;;;;3.35;2.38;;;9.30;99.90;;;;;;6268498;22;20016;-83
2023/12/31 11:46:39;;;;;;;4.38;3.33;;;9.20;99.90;;;;;;6268334;22;20019;-82
2023/12/31 11:49:06;;;;;;;2.80;2.20;;;9.30;99.90;;;;;;6243158;22;20447;-81
2023/12/31 11:51:53;;;;;;;11.88;8.52;;;9.00;99.90;;;;;;6268418;22;20054;-81
2023/12/31 11:54:34;;;;;;;3.42;2.60;;;8.90;99.90;;;;;;6264958;22;20020;-80
2023/12/31 11:57:00;;;;;;;0.88;0.60;;;8.80;99.90;;;;;;6267382;22;20003;-86
2023/12/31 11:59:26;;;;;;;2.13;1.40;;;8.70;99.90;;;;;;6268524;22;20020;-82
2023/12/31 12:01:53;;;;;;;1.38;0.80;;;8.60;99.90;;;;;;6268254;22;20467;-83
2023/12/31 12:04:19;;;;;;;;;;;8.50;99.90;;;;;;6267993;22;20428;-82
2023/12/31 12:06:45;;;;;;;0.85;0.47;;;8.50;99.90;;;;;;6270417;22;19915;-80
2023/12/31 12:09:11;;;;;;;1.70;1.05;;;8.40;99.90;;;;;;6269590;22;20066;-81
2023/12/31 12:11:42;;;;;;;4.88;0.70;;;8.30;99.90;;;;;;6266900;22;20019;-82
2023/12/31 12:14:10;;;;;;;0.73;0.60;;;8.30;99.90;;;;;;6241878;22;20022;-82
2023/12/31 12:16:35;;;;;;;1.67;1.00;;;8.30;99.90;;;;;;6267237;22;20019;-82
2023/12/31 12:19:03;;;;;;;1.60;0.82;;;8.30;99.90;;;;;;6265889;22;20423;-84
2023/12/31 12:21:30;;;;;;;1.25;0.80;;;8.30;99.90;;;;;;6267310;22;20205;-83
2023/12/31 12:23:55;;;;;;;1.17;0.80;;;8.30;99.90;;;;;;6267494;22;20325;-83
2023/12/31 12:26:22;;;;;;;1.40;0.82;;;8.30;99.90;;;;;;6266379;22;20027;-82
2023/12/31 12:28:53;;;;;;;1.02;0.60;;;8.50;99.90;;;;;;6239258;22;20027;-83
2023/12/31 12:31:19;;;;;;;2.05;1.40;;;8.70;99.90;;;;;;6265407;22;20480;-82
2023/12/31 12:33:55;;;;;;;1.90;1.17;;;8.90;99.90;;;;;;6266645;22;20015;-83
2023/12/31 12:36:21;;;;;;;1.50;0.98;;;9.00;99.90;;;;;;6267681;22;20495;-82
2023/12/31 12:38:48;;;;;;;;;;;8.90;99.90;;;;;;6242792;22;20047;-82
2023/12/31 12:41:23;;;;;;;1.67;0.60;;;9.00;99.90;;;;;;6267273;22;19926;-83
2023/12/31 12:44:06;;;;;;;1.20;0.93;;;9.10;99.90;;;;;;6267818;22;20035;-82
2023/12/31 12:46:33;;;;;;;2.15;1.27;;;9.10;99.90;;;;;;6267106;22;20091;-82
2023/12/31 12:48:59;;;;;;;1.85;1.08;;;9.10;99.90;;;;;;6266379;22;20020;-82
2023/12/31 12:51:25;;;;;;;1.13;0.93;;;9.10;99.90;;;;;;6268153;22;20054;-83
2023/12/31 12:53:53;;;;;;;;;;;9.20;99.90;;;;;;6269240;22;20012;-83
2023/12/31 12:56:19;;;;;;;1.42;0.98;;;9.20;99.90;;;;;;6269365;22;19923;-82